createdAt,value
2023-07-02T00:00:16.416Z,22.13
2023-07-02T00:02:44.068Z,19.67
2023-07-02T00:05:11.977Z,19.35
2023-07-02T00:07:39.709Z,19.77
2023-07-02T00:10:07.742Z,14.38
2023-07-02T00:12:35.415Z,19.55
2023-07-02T00:15:03.402Z,17.40
2023-07-02T00:17:34.514Z,17.50
2023-07-02T00:20:10.033Z,15.80
2023-07-02T00:22:38.069Z,14.43
2023-07-02T00:25:05.833Z,15.23
2023-07-02T00:27:33.513Z,19.67
2023-07-02T00:30:01.108Z,13.90
2023-07-02T00:32:35.647Z,15.25
2023-07-02T00:35:03.336Z,12.50
2023-07-02T00:37:32.441Z,14.02
2023-07-02T00:40:00.319Z,10.60
2023-07-02T00:42:30.800Z,10.48
2023-07-02T00:45:04.074Z,12.20
2023-07-02T00:47:36.545Z,11.35
2023-07-02T00:50:04.604Z,13.63
2023-07-02T00:52:35.463Z,14.82
2023-07-02T00:55:04.321Z,11.25
2023-07-02T00:57:34.707Z,10.30
2023-07-02T01:00:02.887Z,12.27
2023-07-02T01:02:35.678Z,10.02
2023-07-02T01:05:03.691Z,9.88
2023-07-02T01:07:33.359Z,8.50
2023-07-02T01:10:01.115Z,9.93
2023-07-02T01:12:31.897Z,9.60
2023-07-02T01:15:04.085Z,8.95
2023-07-02T01:17:43.168Z,10.18
2023-07-02T01:20:12.481Z,7.28
2023-07-02T01:22:40.167Z,9.10
2023-07-02T01:25:10.584Z,6.05
2023-07-02T01:27:38.957Z,8.55
2023-07-02T01:30:10.583Z,7.18
2023-07-02T01:32:40.202Z,7.85
2023-07-02T01:35:08.961Z,9.50
2023-07-02T01:37:38.813Z,6.85
2023-07-02T01:40:12.114Z,8.45
2023-07-02T01:42:40.585Z,6.10
2023-07-02T01:45:08.933Z,6.90
2023-07-02T01:47:36.673Z,7.75
2023-07-02T01:50:06.503Z,7.78
2023-07-02T01:52:35.135Z,9.52
2023-07-02T01:55:04.032Z,11.10
2023-07-02T01:57:32.987Z,6.25
2023-07-02T02:00:00.684Z,6.80
2023-07-02T02:02:28.484Z,12.00
2023-07-02T02:04:58.055Z,6.85
2023-07-02T02:07:25.776Z,7.50
2023-07-02T02:09:53.392Z,9.40
2023-07-02T02:12:21.368Z,8.55
2023-07-02T02:14:49.535Z,10.07
2023-07-02T02:17:17.529Z,9.48
2023-07-02T02:19:45.445Z,10.82
2023-07-02T02:22:13.040Z,7.72
2023-07-02T02:24:41.222Z,9.68
2023-07-02T02:27:08.904Z,8.07
2023-07-02T02:29:36.602Z,8.88
2023-07-02T02:32:05.134Z,9.73
2023-07-02T02:34:33.369Z,12.13
2023-07-02T02:37:01.922Z,9.57
2023-07-02T02:39:29.591Z,10.43
2023-07-02T02:41:57.400Z,8.93
2023-07-02T02:44:25.112Z,8.95
2023-07-02T02:46:52.823Z,12.13
2023-07-02T02:49:20.423Z,9.32
2023-07-02T02:51:48.139Z,7.97
2023-07-02T02:54:15.893Z,10.45
2023-07-02T02:56:44.459Z,8.35
2023-07-02T02:59:13.522Z,7.78
2023-07-02T03:01:42.273Z,7.40
2023-07-02T03:04:10.061Z,8.27
2023-07-02T03:06:37.670Z,10.52
2023-07-02T03:09:05.289Z,7.13
2023-07-02T03:11:32.950Z,11.30
2023-07-02T03:14:00.697Z,11.15
2023-07-02T03:16:28.334Z,8.55
2023-07-02T03:18:55.912Z,9.15
2023-07-02T03:21:23.513Z,9.13
2023-07-02T03:23:51.105Z,9.35
2023-07-02T03:26:18.867Z,8.27
2023-07-02T03:28:46.436Z,10.48
2023-07-02T03:31:14.192Z,8.40
2023-07-02T03:33:42.046Z,8.90
2023-07-02T03:36:09.632Z,10.27
2023-07-02T03:38:37.226Z,11.18
2023-07-02T03:41:04.763Z,6.75
2023-07-02T03:43:32.468Z,6.60
2023-07-02T03:46:00.160Z,10.60
2023-07-02T03:48:27.986Z,7.03
2023-07-02T03:50:55.549Z,7.93
2023-07-02T03:53:23.153Z,7.35
2023-07-02T03:55:50.809Z,9.90
2023-07-02T03:58:18.411Z,6.25
2023-07-02T04:00:46.115Z,7.50
2023-07-02T04:03:13.917Z,11.15
2023-07-02T04:05:41.507Z,7.00
2023-07-02T04:08:09.045Z,7.68
2023-07-02T04:10:36.894Z,12.25
2023-07-02T04:13:04.404Z,7.75
2023-07-02T04:15:33.522Z,10.50
2023-07-02T04:18:01.407Z,7.15
2023-07-02T04:20:29.898Z,7.40
2023-07-02T04:22:57.415Z,7.60
2023-07-02T04:25:36.674Z,8.95
2023-07-02T04:28:12.645Z,7.68
2023-07-02T04:30:40.640Z,5.30
2023-07-02T04:33:08.187Z,8.48
2023-07-02T04:35:35.900Z,5.88
2023-07-02T04:38:04.632Z,6.70
2023-07-02T04:40:32.184Z,7.68
2023-07-02T04:42:59.875Z,6.95
2023-07-02T04:45:28.527Z,6.63
2023-07-02T04:47:56.273Z,7.18
2023-07-02T04:50:23.853Z,8.60
2023-07-02T04:52:51.472Z,8.30
2023-07-02T04:55:19.061Z,6.43
2023-07-02T04:57:47.512Z,5.57
2023-07-02T05:00:15.860Z,7.32
2023-07-02T05:02:43.490Z,8.60
2023-07-02T05:05:11.157Z,6.65
2023-07-02T05:07:38.754Z,3.92
2023-07-02T05:10:06.735Z,6.90
2023-07-02T05:12:34.322Z,6.20
2023-07-02T05:15:02.104Z,9.43
2023-07-02T05:17:36.136Z,6.57
2023-07-02T05:20:08.596Z,7.10
2023-07-02T05:25:03.453Z,7.72
2023-07-02T05:27:33.159Z,6.28
2023-07-02T05:30:00.722Z,6.47
2023-07-02T05:32:28.722Z,6.95
2023-07-02T05:34:56.256Z,5.32
2023-07-02T05:37:24.748Z,5.97
2023-07-02T05:39:52.321Z,9.32
2023-07-02T05:42:19.882Z,7.93
2023-07-02T05:44:47.567Z,8.30
2023-07-02T05:47:15.110Z,6.10
2023-07-02T05:49:44.220Z,6.32
2023-07-02T05:52:11.846Z,5.47
2023-07-02T05:54:42.986Z,7.50
2023-07-02T05:57:10.659Z,7.55
2023-07-02T05:59:39.577Z,6.43
2023-07-02T06:02:08.010Z,9.98
2023-07-02T06:04:35.721Z,6.60
2023-07-02T06:07:03.461Z,5.53
2023-07-02T06:09:31.310Z,5.38
2023-07-02T06:11:59.024Z,8.27
2023-07-02T06:14:27.143Z,10.15
2023-07-02T06:16:56.934Z,5.68
2023-07-02T06:19:24.766Z,8.93
2023-07-02T06:21:52.361Z,5.90
2023-07-02T06:24:20.214Z,5.88
2023-07-02T06:26:47.854Z,7.82
2023-07-02T06:29:15.478Z,7.22
2023-07-02T06:31:43.119Z,7.15
2023-07-02T06:34:11.141Z,5.80
2023-07-02T06:36:38.757Z,7.07
2023-07-02T06:39:06.395Z,8.95
2023-07-02T06:41:33.927Z,8.13
2023-07-02T06:44:01.495Z,5.82
2023-07-02T06:46:29.748Z,6.95
2023-07-02T06:48:58.028Z,10.48
2023-07-02T06:51:27.466Z,8.80
2023-07-02T06:53:55.067Z,8.45
2023-07-02T06:56:23.096Z,8.63
2023-07-02T06:58:50.937Z,9.88
2023-07-02T07:01:18.524Z,11.35
2023-07-02T07:03:46.242Z,7.03
2023-07-02T07:06:14.136Z,10.18
2023-07-02T07:08:41.774Z,9.48
2023-07-02T07:11:09.382Z,9.52
2023-07-02T07:13:37.021Z,6.57
2023-07-02T07:16:04.920Z,8.73
2023-07-02T07:18:33.406Z,14.77
2023-07-02T07:21:01.562Z,9.70
2023-07-02T07:23:29.359Z,6.97
2023-07-02T07:25:56.932Z,8.45
2023-07-02T07:28:24.531Z,5.45
2023-07-02T07:30:52.484Z,7.53
2023-07-02T07:33:20.282Z,7.35
2023-07-02T07:35:47.972Z,7.57
2023-07-02T07:38:16.095Z,8.50
2023-07-02T07:40:46.988Z,8.77
2023-07-02T07:43:14.675Z,8.52
2023-07-02T07:45:42.310Z,7.45
2023-07-02T07:48:09.998Z,8.73
2023-07-02T07:50:37.727Z,7.22
2023-07-02T07:53:05.350Z,8.88
2023-07-02T07:55:33.043Z,9.13
2023-07-02T07:58:00.622Z,7.75
2023-07-02T08:00:28.481Z,10.38
2023-07-02T08:02:57.079Z,9.55
2023-07-02T08:05:24.906Z,12.18
2023-07-02T08:07:52.673Z,10.02
2023-07-02T08:10:20.744Z,9.77
2023-07-02T08:12:49.036Z,11.25
2023-07-02T08:15:16.806Z,8.27
2023-07-02T08:17:44.423Z,7.25
2023-07-02T08:20:13.253Z,9.20
2023-07-02T08:22:41.804Z,6.68
2023-07-02T08:25:09.712Z,9.52
2023-07-02T08:27:37.501Z,9.52
2023-07-02T08:30:06.006Z,11.70
2023-07-02T08:32:34.926Z,8.15
2023-07-02T08:35:02.922Z,9.27
2023-07-02T08:37:32.583Z,8.60
2023-07-02T08:40:00.363Z,8.45
2023-07-02T08:42:30.856Z,7.88
2023-07-02T08:45:00.956Z,9.02
2023-07-02T08:47:32.839Z,6.53
2023-07-02T08:50:00.615Z,11.05
2023-07-02T08:52:28.937Z,8.30
2023-07-02T08:54:56.463Z,8.57
2023-07-02T08:57:24.116Z,9.27
2023-07-02T08:59:53.094Z,7.60
2023-07-02T09:02:31.884Z,8.95
2023-07-02T09:05:04.297Z,11.18
2023-07-02T09:07:44.651Z,10.65
2023-07-02T09:10:12.280Z,9.27
2023-07-02T09:12:41.179Z,7.80
2023-07-02T09:15:09.576Z,11.68
2023-07-02T09:17:38.470Z,10.50
2023-07-02T09:20:09.873Z,10.20
2023-07-02T09:22:38.726Z,8.23
2023-07-02T09:25:06.898Z,10.07
2023-07-02T09:27:37.127Z,9.38
2023-07-02T09:30:14.105Z,10.82
2023-07-02T09:32:41.969Z,8.05
2023-07-02T09:35:10.049Z,7.10
2023-07-02T09:37:38.186Z,7.03
2023-07-02T09:40:08.010Z,10.25
2023-07-02T09:42:37.145Z,8.23
2023-07-02T09:45:08.974Z,11.00
2023-07-02T09:47:47.012Z,7.15
2023-07-02T09:50:17.566Z,10.98
2023-07-02T09:52:47.358Z,9.93
2023-07-02T09:55:16.738Z,9.18
2023-07-02T09:57:47.707Z,7.07
2023-07-02T10:00:16.845Z,8.10
2023-07-02T10:02:50.961Z,8.75
2023-07-02T10:05:31.562Z,9.85
2023-07-02T10:08:00.666Z,10.25
2023-07-02T10:10:29.759Z,8.98
2023-07-02T10:12:57.943Z,8.93
2023-07-02T10:15:30.963Z,9.25
2023-07-02T10:18:01.539Z,10.30
2023-07-02T10:20:35.330Z,9.13
2023-07-02T10:23:03.976Z,9.27
2023-07-02T10:25:33.654Z,8.52
2023-07-02T10:28:02.076Z,11.25
2023-07-02T10:30:38.424Z,8.45
2023-07-02T10:33:16.159Z,7.93
2023-07-02T10:35:48.524Z,11.38
2023-07-02T10:38:24.148Z,10.00
2023-07-02T10:41:00.592Z,8.82
2023-07-02T10:43:34.024Z,10.90
2023-07-02T10:46:02.770Z,9.10
2023-07-02T10:48:31.130Z,11.75
2023-07-02T10:50:58.962Z,16.45
2023-07-02T10:53:26.691Z,10.77
2023-07-02T10:55:59.392Z,10.57
2023-07-02T11:00:54.948Z,8.10
2023-07-02T11:03:24.998Z,6.68
2023-07-02T11:05:53.666Z,10.63
2023-07-02T11:08:26.171Z,4.60
2023-07-02T11:11:10.912Z,8.67
2023-07-02T11:13:51.118Z,6.35
2023-07-02T11:16:31.066Z,7.85
2023-07-02T11:19:12.901Z,10.00
2023-07-02T11:21:51.213Z,6.53
2023-07-02T11:24:38.164Z,10.00
2023-07-02T11:27:09.467Z,11.85
2023-07-02T11:29:38.165Z,6.15
2023-07-02T11:32:10.925Z,7.38
2023-07-02T11:34:39.850Z,7.35
2023-07-02T11:37:08.177Z,9.82
2023-07-02T11:39:35.810Z,8.93
2023-07-02T11:42:03.501Z,8.50
2023-07-02T11:44:31.061Z,11.93
2023-07-02T11:46:58.931Z,8.45
2023-07-02T11:49:26.639Z,9.88
2023-07-02T11:51:54.292Z,11.13
2023-07-02T11:54:22.018Z,7.78
2023-07-02T11:56:49.718Z,8.85
2023-07-02T11:59:17.345Z,7.90
2023-07-02T12:01:45.038Z,11.18
2023-07-02T12:04:14.153Z,10.02
2023-07-02T12:06:41.912Z,10.48
2023-07-02T12:09:09.595Z,7.07
2023-07-02T12:11:37.330Z,7.15
2023-07-02T12:14:04.885Z,9.95
2023-07-02T12:16:32.649Z,12.48
2023-07-02T12:19:00.392Z,9.15
2023-07-02T12:21:28.980Z,10.23
2023-07-02T12:23:57.076Z,9.98
2023-07-02T12:26:24.761Z,12.45
2023-07-02T12:28:52.403Z,10.80
2023-07-02T12:31:20.051Z,10.60
2023-07-02T12:33:47.722Z,11.40
2023-07-02T12:36:15.506Z,9.68
2023-07-02T12:38:43.039Z,8.57
2023-07-02T12:41:10.842Z,10.07
2023-07-02T12:43:38.471Z,9.52
2023-07-02T12:46:07.841Z,8.00
2023-07-02T12:48:35.475Z,14.45
2023-07-02T12:51:03.131Z,11.57
2023-07-02T12:53:30.793Z,6.90
2023-07-02T12:55:58.334Z,8.23
2023-07-02T12:58:26.002Z,10.60
2023-07-02T13:00:53.779Z,10.68
2023-07-02T13:03:22.073Z,10.80
2023-07-02T13:05:50.267Z,10.27
2023-07-02T13:08:18.387Z,9.02
2023-07-02T13:10:46.151Z,8.00
2023-07-02T13:13:22.797Z,10.35
2023-07-02T13:15:51.900Z,8.10
2023-07-02T13:18:19.864Z,15.57
2023-07-02T13:20:47.607Z,11.95
2023-07-02T13:23:15.186Z,11.05
2023-07-02T13:25:43.013Z,13.57
2023-07-02T13:28:10.599Z,11.10
2023-07-02T13:30:38.206Z,14.55
2023-07-02T13:33:05.969Z,10.02
2023-07-02T13:35:33.650Z,14.13
2023-07-02T13:38:01.346Z,9.88
2023-07-02T13:40:29.277Z,10.30
2023-07-02T13:42:57.339Z,9.07
2023-07-02T13:45:25.001Z,11.07
2023-07-02T13:47:52.776Z,10.85
2023-07-02T13:50:20.577Z,10.82
2023-07-02T13:52:48.558Z,12.90
2023-07-02T13:55:16.358Z,10.05
2023-07-02T13:57:44.283Z,11.68
2023-07-02T14:00:12.494Z,10.90
2023-07-02T14:02:40.250Z,9.43
2023-07-02T14:05:08.458Z,11.07
2023-07-02T14:07:36.372Z,9.68
2023-07-02T14:10:05.335Z,11.55
2023-07-02T14:12:33.372Z,10.70
2023-07-02T14:15:01.069Z,14.18
2023-07-02T14:17:31.100Z,7.80
2023-07-02T14:19:59.186Z,10.52
2023-07-02T14:22:26.833Z,12.50
2023-07-02T14:24:54.518Z,8.23
2023-07-02T14:27:22.237Z,12.07
2023-07-02T14:29:49.893Z,10.35
2023-07-02T14:32:18.307Z,12.50
2023-07-02T14:34:46.149Z,9.93
2023-07-02T14:37:13.970Z,9.00
2023-07-02T14:39:43.769Z,13.07
2023-07-02T14:42:15.676Z,11.40
2023-07-02T14:44:43.382Z,10.27
2023-07-02T14:47:11.098Z,9.93
2023-07-02T14:49:39.049Z,10.60
2023-07-02T14:52:07.174Z,11.50
2023-07-02T14:54:35.522Z,10.40
2023-07-02T14:57:03.299Z,14.95
2023-07-02T14:59:31.147Z,7.75
2023-07-02T15:01:58.773Z,11.65
2023-07-02T15:04:26.812Z,12.65
2023-07-02T15:06:54.577Z,13.73
2023-07-02T15:09:22.446Z,13.05
2023-07-02T15:11:50.244Z,12.38
2023-07-02T15:14:17.809Z,15.95
2023-07-02T15:16:45.599Z,14.57
2023-07-02T15:19:14.073Z,13.02
2023-07-02T15:21:41.805Z,14.50
2023-07-02T15:24:11.951Z,13.32
2023-07-02T15:26:41.217Z,13.30
2023-07-02T15:29:09.465Z,13.20
2023-07-02T15:31:42.098Z,10.23
2023-07-02T15:34:10.003Z,11.95
2023-07-02T15:36:38.710Z,13.05
2023-07-02T15:39:07.560Z,11.13
2023-07-02T15:41:35.829Z,16.55
2023-07-02T15:44:05.453Z,10.65
2023-07-02T15:46:38.506Z,12.82
2023-07-02T15:49:08.202Z,12.23
2023-07-02T15:51:38.151Z,17.00
2023-07-02T15:54:07.667Z,15.75
2023-07-02T15:56:36.284Z,15.07
2023-07-02T15:59:06.624Z,10.35
2023-07-02T16:01:38.223Z,12.05
2023-07-02T16:04:10.931Z,14.55
2023-07-02T16:06:38.828Z,14.07
2023-07-02T16:09:09.319Z,15.13
2023-07-02T16:11:43.105Z,15.02
2023-07-02T16:14:13.430Z,12.45
2023-07-02T16:16:43.087Z,14.00
2023-07-02T16:19:12.666Z,12.68
2023-07-02T16:21:41.792Z,13.98
2023-07-02T16:24:19.101Z,13.93
2023-07-02T16:26:47.493Z,18.38
2023-07-02T16:29:16.343Z,14.32
2023-07-02T16:31:55.536Z,13.00
2023-07-02T16:34:24.187Z,14.77
2023-07-02T16:36:53.057Z,14.52
2023-07-02T16:39:21.753Z,12.15
2023-07-02T16:41:50.625Z,14.38
2023-07-02T16:44:24.392Z,17.98
2023-07-02T16:46:54.733Z,17.80
2023-07-02T16:49:26.018Z,12.43
2023-07-02T16:51:54.521Z,14.10
2023-07-02T16:54:23.879Z,15.60
2023-07-02T16:56:59.248Z,11.95
2023-07-02T16:59:29.065Z,13.95
2023-07-02T17:02:00.518Z,15.68
2023-07-02T17:04:29.118Z,16.35
2023-07-02T17:06:59.253Z,13.23
2023-07-02T17:09:35.453Z,11.95
2023-07-02T17:12:06.037Z,14.23
2023-07-02T17:14:37.831Z,12.40
2023-07-02T17:17:12.052Z,10.30
2023-07-02T17:19:42.216Z,12.85
2023-07-02T17:22:13.211Z,10.05
2023-07-02T17:24:43.356Z,13.52
2023-07-02T17:27:12.226Z,12.02
2023-07-02T17:29:40.146Z,13.30
2023-07-02T17:32:09.911Z,11.35
2023-07-02T17:34:38.871Z,11.95
2023-07-02T17:37:09.544Z,10.50
2023-07-02T17:39:38.875Z,14.25
2023-07-02T17:42:06.948Z,11.65
2023-07-02T17:44:37.990Z,10.57
2023-07-02T17:47:12.416Z,11.15
2023-07-02T17:49:41.980Z,12.43
2023-07-02T17:52:12.247Z,15.75
2023-07-02T17:54:43.528Z,11.43
2023-07-02T17:57:12.730Z,11.27
2023-07-02T17:59:40.691Z,14.88
2023-07-02T18:02:10.338Z,11.05
2023-07-02T18:04:39.166Z,11.77
2023-07-02T18:07:19.095Z,14.73
2023-07-02T18:09:49.724Z,13.43
2023-07-02T18:12:20.154Z,11.00
2023-07-02T18:14:48.442Z,11.63
2023-07-02T18:17:17.353Z,14.10
2023-07-02T18:19:45.221Z,13.93
2023-07-02T18:22:13.074Z,13.88
2023-07-02T18:24:42.740Z,14.30
2023-07-02T18:27:11.237Z,12.85
2023-07-02T18:29:39.578Z,14.73
2023-07-02T18:32:09.368Z,15.02
2023-07-02T18:34:40.300Z,15.90
2023-07-02T18:37:12.679Z,11.25
2023-07-02T18:39:42.038Z,12.67
2023-07-02T18:42:12.156Z,16.17
2023-07-02T18:44:40.936Z,11.02
2023-07-02T18:47:12.649Z,13.75
2023-07-02T18:49:41.498Z,14.45
2023-07-02T18:52:10.774Z,10.73
2023-07-02T18:54:38.763Z,13.30
2023-07-02T18:57:08.423Z,14.68
2023-07-02T18:59:36.614Z,17.70
2023-07-02T19:02:07.288Z,15.20
2023-07-02T19:04:35.776Z,13.50
2023-07-02T19:07:06.217Z,13.85
2023-07-02T19:09:38.891Z,15.88
2023-07-02T19:12:11.080Z,16.88
2023-07-02T19:14:41.992Z,13.80
2023-07-02T19:17:11.887Z,17.25
2023-07-02T19:19:42.491Z,14.75
2023-07-02T19:22:12.395Z,14.35
2023-07-02T19:24:40.890Z,16.38
2023-07-02T19:27:11.593Z,13.95
2023-07-02T19:29:39.296Z,12.82
2023-07-02T19:32:07.636Z,17.40
2023-07-02T19:34:35.450Z,13.10
2023-07-02T19:37:03.381Z,13.93
2023-07-02T19:39:31.871Z,10.70
2023-07-02T19:42:01.243Z,13.15
2023-07-02T19:44:28.994Z,15.52
2023-07-02T19:46:56.629Z,14.68
2023-07-02T19:49:24.279Z,13.32
2023-07-02T19:51:52.358Z,9.13
2023-07-02T19:54:20.733Z,11.35
2023-07-02T19:56:49.954Z,11.70
2023-07-02T19:59:18.502Z,11.07
2023-07-02T20:01:46.244Z,10.25
2023-07-02T20:04:22.511Z,9.25
2023-07-02T20:06:51.115Z,13.70
2023-07-02T20:09:19.052Z,9.52
2023-07-02T20:11:46.822Z,9.38
2023-07-02T20:14:16.305Z,6.80
2023-07-02T20:16:44.946Z,9.45
2023-07-02T20:19:12.580Z,10.98
2023-07-02T20:21:41.853Z,7.95
2023-07-02T20:24:09.491Z,6.90
2023-07-02T20:26:37.104Z,13.30
2023-07-02T20:29:05.144Z,8.93
2023-07-02T20:31:33.143Z,9.10
2023-07-02T20:34:04.166Z,8.88
2023-07-02T20:36:33.161Z,9.00
2023-07-02T20:39:00.779Z,9.15
2023-07-02T20:41:29.757Z,6.40
2023-07-02T20:44:04.789Z,10.20
2023-07-02T20:46:33.074Z,8.38
2023-07-02T20:49:00.770Z,10.38
2023-07-02T20:51:28.544Z,10.82
2023-07-02T20:53:56.315Z,7.38
2023-07-02T20:56:23.992Z,6.00
2023-07-02T20:58:52.106Z,6.75
2023-07-02T21:01:19.937Z,8.85
2023-07-02T21:03:47.734Z,7.43
2023-07-02T21:06:15.540Z,6.50
2023-07-02T21:08:43.132Z,5.82
2023-07-02T21:11:20.326Z,9.57
2023-07-02T21:13:58.956Z,7.55
2023-07-02T21:16:26.854Z,6.18
2023-07-02T21:18:54.488Z,7.43
2023-07-02T21:21:22.535Z,6.03
2023-07-02T21:23:50.056Z,6.78
2023-07-02T21:26:17.705Z,7.57
2023-07-02T21:28:45.329Z,7.75
2023-07-02T21:31:14.542Z,6.97
2023-07-02T21:33:42.264Z,6.88
2023-07-02T21:36:11.222Z,8.38
2023-07-02T21:38:40.745Z,8.23
2023-07-02T21:41:09.742Z,6.60
2023-07-02T21:43:38.042Z,7.15
2023-07-02T21:46:07.782Z,5.45
2023-07-02T21:48:35.595Z,7.60
2023-07-02T21:51:03.605Z,5.43
2023-07-02T21:53:31.258Z,5.78
2023-07-02T21:55:59.038Z,5.38
2023-07-02T21:58:27.148Z,5.95
2023-07-02T22:00:54.796Z,7.10
2023-07-02T22:03:22.563Z,7.22
2023-07-02T22:05:55.220Z,8.38
2023-07-02T22:08:23.236Z,7.15
2023-07-02T22:10:51.958Z,7.00
2023-07-02T22:13:20.679Z,6.80
2023-07-02T22:15:49.356Z,6.63
2023-07-02T22:18:19.210Z,7.00
2023-07-02T22:20:48.393Z,7.25
2023-07-02T22:23:16.079Z,5.70
2023-07-02T22:25:45.892Z,7.28
2023-07-02T22:28:13.837Z,4.85
2023-07-02T22:30:41.707Z,5.47
2023-07-02T22:33:09.302Z,7.47
2023-07-02T22:35:37.305Z,10.52
2023-07-02T22:38:05.068Z,6.00
2023-07-02T22:40:32.680Z,7.78
2023-07-02T22:43:00.397Z,7.10
2023-07-02T22:45:28.099Z,6.43
2023-07-02T22:47:56.035Z,7.80
2023-07-02T22:50:23.783Z,6.15
2023-07-02T22:52:51.788Z,5.90
2023-07-02T22:55:19.643Z,8.25
2023-07-02T22:57:48.641Z,4.90
2023-07-02T23:00:18.440Z,6.13
2023-07-02T23:02:47.696Z,9.50
2023-07-02T23:05:18.880Z,5.35
2023-07-02T23:07:47.851Z,9.27
2023-07-02T23:10:17.524Z,8.20
2023-07-02T23:12:49.708Z,7.25
2023-07-02T23:15:20.704Z,8.65
2023-07-02T23:17:55.201Z,7.25
2023-07-02T23:20:23.797Z,5.35
2023-07-02T23:22:52.352Z,6.65
2023-07-02T23:25:24.852Z,9.45
2023-07-02T23:28:04.056Z,7.90
2023-07-02T23:30:39.024Z,8.65
2023-07-02T23:33:11.793Z,5.82
2023-07-02T23:35:39.816Z,5.63
2023-07-02T23:38:08.242Z,4.97
2023-07-02T23:40:37.044Z,5.30
2023-07-02T23:43:05.453Z,8.63
2023-07-02T23:45:33.232Z,6.65
2023-07-02T23:48:01.897Z,5.90
2023-07-02T23:50:29.762Z,4.65
2023-07-02T23:52:57.558Z,5.68
2023-07-02T23:55:25.149Z,5.00
2023-07-02T23:57:52.903Z,5.78
